Time;durP1;ratioP1;P1;durP2;ratioP2;P2;SDS_P1;SDS_P2;PMS_P1;PMS_P2;Temp;Humidity;BMP_temperature;BMP_pressure;BME280_temperature;BME280_humidity;BME280_pressure;Samples;Min_cycle;Max_cycle;Signal;HPM_P1;HPM_P2
2023/04/12 00:01:31;;;;;;;5.60;1.65;;;7.90;99.90;;;;;;5094873;28;20108;-66
2023/04/12 00:03:57;;;;;;;4.32;1.80;;;7.90;99.90;;;;;;5112712;28;20106;-66
2023/04/12 00:06:26;;;;;;;6.50;2.30;;;7.90;99.90;;;;;;5112405;28;20512;-70
2023/04/12 00:08:52;;;;;;;6.88;1.92;;;7.90;99.90;;;;;;5106112;28;20471;-65
2023/04/12 00:11:17;;;;;;;4.50;1.83;;;7.90;99.90;;;;;;5112720;28;20075;-66
2023/04/12 00:13:43;;;;;;;6.03;1.75;;;7.90;99.90;;;;;;5094830;28;20039;-65
2023/04/12 00:16:09;;;;;;;6.03;2.13;;;7.90;99.90;;;;;;5092325;28;20050;-66
2023/04/12 00:18:35;;;;;;;9.13;1.90;;;8.00;99.90;;;;;;5091754;28;20566;-64
2023/04/12 00:21:00;;;;;;;9.10;2.42;;;8.00;99.90;;;;;;5093130;28;20058;-65
2023/04/12 00:23:26;;;;;;;5.50;2.15;;;8.00;99.90;;;;;;5091762;28;20051;-70
2023/04/12 00:25:51;;;;;;;6.43;2.22;;;7.90;99.90;;;;;;5075167;28;20050;-65
2023/04/12 00:28:17;;;;;;;7.90;1.98;;;8.00;99.90;;;;;;5091916;28;20047;-65
2023/04/12 00:30:44;;;;;;;9.15;1.80;;;8.00;99.90;;;;;;5107551;28;20055;-64
2023/04/12 00:33:10;;;;;;;6.95;1.85;;;8.00;99.90;;;;;;5112732;28;20092;-66
2023/04/12 00:35:36;;;;;;;9.95;1.90;;;8.00;99.90;;;;;;5095822;28;20060;-65
2023/04/12 00:38:02;;;;;;;4.63;1.70;;;8.00;99.90;;;;;;5100159;28;20101;-65
2023/04/12 00:40:28;;;;;;;6.65;1.73;;;8.00;99.90;;;;;;5113143;28;20059;-69
2023/04/12 00:42:54;;;;;;;8.60;2.83;;;8.00;99.90;;;;;;5113604;28;20056;-65
2023/04/12 00:45:20;;;;;;;5.57;2.05;;;8.10;99.90;;;;;;5113443;28;20366;-64
2023/04/12 00:47:46;;;;;;;6.78;1.90;;;8.10;99.90;;;;;;5112130;28;20047;-65
2023/04/12 00:50:12;;;;;;;10.00;3.22;;;8.10;99.90;;;;;;5110285;28;20043;-64
2023/04/12 00:52:39;;;;;;;8.90;2.05;;;8.10;99.90;;;;;;5111947;28;20052;-65
2023/04/12 00:55:06;;;;;;;12.80;2.58;;;8.10;99.90;;;;;;5085421;28;20056;-65
2023/04/12 00:57:35;;;;;;;9.30;2.20;;;8.10;99.90;;;;;;5092285;28;20043;-67
2023/04/12 01:00:04;;;;;;;6.28;2.22;;;8.10;99.90;;;;;;5092686;28;20044;-65
2023/04/12 01:02:32;;;;;;;9.40;1.58;;;8.10;99.90;;;;;;5111249;28;20541;-70
2023/04/12 01:04:58;;;;;;;7.78;2.28;;;8.20;99.90;;;;;;5112455;28;20036;-66
2023/04/12 01:07:26;;;;;;;;;;;8.20;99.90;;;;;;5102945;28;20088;-66
2023/04/12 01:10:11;;;;;;;7.78;2.10;;;8.30;99.90;;;;;;5091937;28;20292;-64
2023/04/12 01:12:56;;;;;;;5.15;2.20;;;8.30;99.90;;;;;;5075773;28;20036;-65
2023/04/12 01:15:25;;;;;;;10.18;2.40;;;8.30;99.90;;;;;;5092581;28;20040;-66
2023/04/12 01:18:12;;;;;;;6.15;2.20;;;8.40;99.90;;;;;;5108563;28;20082;-65
2023/04/12 01:21:03;;;;;;;8.38;1.90;;;8.40;99.90;;;;;;5110560;28;20063;-65
2023/04/12 01:23:55;;;;;;;4.22;1.67;;;8.50;99.90;;;;;;5076738;28;20122;-65
2023/04/12 01:26:46;;;;;;;5.40;1.77;;;8.50;99.90;;;;;;5112915;28;20096;-65
2023/04/12 01:29:15;;;;;;;6.20;1.85;;;8.50;99.90;;;;;;5112641;28;20130;-65
2023/04/12 01:31:56;;;;;;;9.30;1.77;;;8.60;99.90;;;;;;5101894;28;20094;-67
2023/04/12 01:34:23;;;;;;;2.42;1.50;;;8.50;99.90;;;;;;5091890;28;20122;-65
2023/04/12 01:36:50;;;;;;;12.55;2.75;;;8.60;99.90;;;;;;5074396;28;20062;-67
2023/04/12 01:39:16;;;;;;;5.88;1.88;;;8.60;99.90;;;;;;5112518;28;20055;-64
2023/04/12 01:41:44;;;;;;;8.80;1.70;;;8.60;99.90;;;;;;5099794;28;20105;-65
2023/04/12 01:44:15;;;;;;;7.40;2.10;;;8.60;99.90;;;;;;5073861;28;20048;-67
2023/04/12 01:46:46;;;;;;;5.57;1.60;;;8.70;99.90;;;;;;5090570;28;20044;-65
2023/04/12 01:49:12;;;;;;;4.78;1.85;;;8.80;99.90;;;;;;5091577;28;20051;-65
2023/04/12 01:51:54;;;;;;;4.85;1.67;;;8.90;99.90;;;;;;5110107;28;20043;-65
2023/04/12 01:54:32;;;;;;;10.38;1.77;;;8.90;99.90;;;;;;5112298;28;20083;-65
2023/04/12 01:57:01;;;;;;;6.85;2.20;;;9.00;99.90;;;;;;5111711;28;20062;-66
2023/04/12 01:59:35;;;;;;;9.50;1.88;;;9.00;99.90;;;;;;5111370;28;20047;-65
2023/04/12 02:02:01;;;;;;;3.97;1.40;;;9.10;99.90;;;;;;5108527;28;20092;-65
2023/04/12 02:04:28;;;;;;;4.47;1.48;;;9.10;99.90;;;;;;5105560;28;20044;-64
2023/04/12 02:06:54;;;;;;;4.65;1.67;;;9.10;99.90;;;;;;5110361;28;20177;-65
2023/04/12 02:09:21;;;;;;;5.18;1.65;;;9.10;99.90;;;;;;5093189;28;20051;-66
2023/04/12 02:11:48;;;;;;;7.80;1.90;;;9.10;99.90;;;;;;5090841;28;20443;-65
2023/04/12 02:14:14;;;;;;;8.45;1.63;;;9.10;99.90;;;;;;5091361;28;20374;-65
2023/04/12 02:16:41;;;;;;;3.75;1.60;;;9.10;99.90;;;;;;5090116;28;20718;-65
2023/04/12 02:19:07;;;;;;;5.72;1.23;;;9.10;99.90;;;;;;5100942;28;20048;-64
2023/04/12 02:21:41;;;;;;;3.83;1.40;;;9.10;99.90;;;;;;5095091;28;20081;-67
2023/04/12 02:24:08;;;;;;;5.57;1.50;;;9.10;99.90;;;;;;5091117;28;20079;-65
2023/04/12 02:26:33;;;;;;;5.70;1.30;;;9.00;99.90;;;;;;5091004;28;20056;-67
2023/04/12 02:28:59;;;;;;;7.85;1.63;;;9.00;99.90;;;;;;5072341;28;20044;-65
2023/04/12 02:31:25;;;;;;;6.13;1.58;;;8.90;99.90;;;;;;5087499;28;20055;-65
2023/04/12 02:33:50;;;;;;;4.85;1.42;;;8.90;99.90;;;;;;5091790;28;20050;-66
2023/04/12 02:36:17;;;;;;;2.30;1.20;;;8.90;99.90;;;;;;5089160;28;20097;-65
2023/04/12 02:38:43;;;;;;;6.68;1.50;;;8.90;99.90;;;;;;5094019;28;20560;-66
2023/04/12 02:41:08;;;;;;;6.88;1.55;;;8.90;99.90;;;;;;5111173;28;20058;-65
2023/04/12 02:43:34;;;;;;;4.25;1.58;;;8.90;99.90;;;;;;5097393;28;20040;-64
2023/04/12 02:45:59;;;;;;;5.93;1.50;;;8.90;99.90;;;;;;5099133;28;20370;-65
2023/04/12 02:48:25;;;;;;;1.77;1.10;;;8.90;99.90;;;;;;5110026;28;20039;-65
2023/04/12 02:50:51;;;;;;;2.35;1.25;;;8.90;99.90;;;;;;5110759;28;20047;-66
2023/04/12 02:53:16;;;;;;;2.80;1.13;;;8.90;99.90;;;;;;5110308;28;20511;-67
2023/04/12 02:55:43;;;;;;;4.65;1.83;;;8.90;99.90;;;;;;5110842;28;20047;-65
2023/04/12 02:58:09;;;;;;;3.75;1.10;;;8.80;99.90;;;;;;5111169;28;20051;-65
2023/04/12 03:00:34;;;;;;;1.90;1.17;;;8.80;99.90;;;;;;5108742;28;20484;-65
2023/04/12 03:03:02;;;;;;;4.60;1.13;;;8.80;99.90;;;;;;5109952;28;20042;-66
2023/04/12 03:05:28;;;;;;;4.68;1.85;;;8.70;99.90;;;;;;5095450;28;20494;-66
2023/04/12 03:07:54;;;;;;;7.20;1.10;;;8.70;99.90;;;;;;5089154;28;20051;-65
2023/04/12 03:10:20;;;;;;;5.07;1.27;;;8.70;99.90;;;;;;5090711;28;20044;-65
2023/04/12 03:12:45;;;;;;;5.35;1.20;;;8.60;99.90;;;;;;5094037;28;20040;-65
2023/04/12 03:15:11;;;;;;;2.92;1.27;;;8.50;99.90;;;;;;5094885;28;20048;-64
2023/04/12 03:17:37;;;;;;;3.50;1.15;;;8.60;99.90;;;;;;5108457;28;20047;-65
2023/04/12 03:20:08;;;;;;;7.05;1.70;;;8.60;99.90;;;;;;5114179;28;20550;-65
2023/04/12 03:22:35;;;;;;;3.90;1.48;;;8.60;99.90;;;;;;5101271;28;20055;-65
2023/04/12 03:25:02;;;;;;;5.22;1.15;;;8.60;99.90;;;;;;5095973;28;20751;-66
2023/04/12 03:27:28;;;;;;;2.83;1.55;;;8.60;99.90;;;;;;5102176;28;20635;-65
2023/04/12 03:29:55;;;;;;;4.00;1.25;;;8.60;99.90;;;;;;5094019;28;20063;-65
2023/04/12 03:32:21;;;;;;;5.45;1.60;;;8.60;99.90;;;;;;5075663;28;20176;-64
2023/04/12 03:34:46;;;;;;;5.90;1.67;;;8.60;99.90;;;;;;5100728;28;20065;-65
2023/04/12 03:37:12;;;;;;;4.55;1.40;;;8.50;99.90;;;;;;5095552;28;20048;-64
2023/04/12 03:39:38;;;;;;;2.03;1.40;;;8.50;99.90;;;;;;5114538;28;20768;-65
2023/04/12 03:42:03;;;;;;;6.85;1.60;;;8.40;99.90;;;;;;5095961;28;20046;-64
2023/04/12 03:44:29;;;;;;;4.88;1.55;;;8.50;99.90;;;;;;5108275;28;20040;-66
2023/04/12 03:46:55;;;;;;;3.20;1.15;;;8.60;99.90;;;;;;5113422;28;20130;-65
2023/04/12 03:49:21;;;;;;;6.88;1.75;;;8.60;99.90;;;;;;5108301;28;20043;-65
2023/04/12 03:51:49;;;;;;;3.85;1.33;;;8.60;99.90;;;;;;5092627;28;20040;-70
2023/04/12 03:54:15;;;;;;;5.07;1.70;;;8.50;99.90;;;;;;5079382;28;20055;-65
2023/04/12 03:56:41;;;;;;;9.43;1.77;;;8.60;99.90;;;;;;5114449;28;20104;-66
2023/04/12 03:59:07;;;;;;;2.78;1.50;;;8.60;99.90;;;;;;5113936;28;20784;-64
2023/04/12 04:01:37;;;;;;;3.50;1.90;;;8.60;99.90;;;;;;5113660;28;20381;-65
2023/04/12 04:04:04;;;;;;;4.18;1.50;;;8.60;99.90;;;;;;5074625;28;20047;-65
2023/04/12 04:06:29;;;;;;;4.35;1.63;;;8.60;99.90;;;;;;5093061;28;20071;-65
2023/04/12 04:08:58;;;;;;;4.05;1.60;;;8.60;99.90;;;;;;5093281;28;20044;-65
2023/04/12 04:11:24;;;;;;;2.60;1.15;;;8.60;99.90;;;;;;5096898;28;20112;-65
2023/04/12 04:13:50;;;;;;;6.50;1.60;;;8.60;99.90;;;;;;5113503;28;20043;-64
2023/04/12 04:16:16;;;;;;;3.80;1.30;;;8.60;99.90;;;;;;5113986;28;20054;-65
2023/04/12 04:18:42;;;;;;;;;;;8.60;99.90;;;;;;5113431;28;20052;-65
2023/04/12 04:21:08;;;;;;;6.47;1.48;;;8.60;99.90;;;;;;5106327;28;19976;-67
2023/04/12 04:23:43;;;;;;;6.35;1.95;;;8.60;99.90;;;;;;5092067;28;20040;-64
2023/04/12 04:26:09;;;;;;;6.18;1.40;;;8.50;99.90;;;;;;5095702;28;20124;-68
2023/04/12 04:28:41;;;;;;;4.05;1.40;;;8.50;99.90;;;;;;5099035;28;20052;-65
2023/04/12 04:31:09;;;;;;;3.30;1.30;;;8.50;99.90;;;;;;5113336;28;20051;-66
2023/04/12 04:33:35;;;;;;;2.55;1.60;;;8.50;99.90;;;;;;5108114;28;20052;-65
2023/04/12 04:36:03;;;;;;;;;;;8.40;99.90;;;;;;5093374;28;20044;-66
2023/04/12 04:38:31;;;;;;;5.80;2.45;;;8.40;99.90;;;;;;5092292;28;19920;-66
2023/04/12 04:40:58;;;;;;;1.38;1.10;;;8.40;99.90;;;;;;5092768;28;20047;-66
2023/04/12 04:43:25;;;;;;;6.32;1.50;;;8.40;99.90;;;;;;5113136;28;20052;-66
2023/04/12 04:45:53;;;;;;;2.83;1.13;;;8.40;99.90;;;;;;5113074;28;20080;-70
2023/04/12 04:48:20;;;;;;;3.47;1.38;;;8.30;99.90;;;;;;5075041;28;20434;-68
2023/04/12 04:50:46;;;;;;;5.30;1.85;;;8.30;99.90;;;;;;5093779;28;20059;-66
2023/04/12 04:53:12;;;;;;;2.25;1.00;;;8.30;99.90;;;;;;5091689;28;20128;-65
2023/04/12 04:55:37;;;;;;;;;;;8.30;99.90;;;;;;5106753;28;20051;-65
2023/04/12 04:58:07;;;;;;;4.30;1.48;;;8.30;99.90;;;;;;5112594;28;19924;-65
2023/04/12 05:00:35;;;;;;;2.70;1.17;;;8.30;99.90;;;;;;5092706;28;20093;-65
2023/04/12 05:03:01;;;;;;;4.60;1.10;;;8.30;99.90;;;;;;5096092;28;20373;-65
2023/04/12 05:05:28;;;;;;;4.15;1.80;;;8.30;99.90;;;;;;5084496;28;20061;-65
2023/04/12 05:07:54;;;;;;;4.00;1.10;;;8.20;99.90;;;;;;5070726;28;20110;-70
2023/04/12 05:10:20;;;;;;;5.25;1.77;;;8.20;99.90;;;;;;5072117;28;20101;-65
2023/04/12 05:12:45;;;;;;;2.58;1.00;;;8.10;99.90;;;;;;5068390;28;20507;-65
2023/04/12 05:15:11;;;;;;;2.92;1.45;;;8.10;99.90;;;;;;5065625;28;20049;-65
2023/04/12 05:17:37;;;;;;;3.47;1.45;;;8.10;99.90;;;;;;5051603;28;20049;-65
2023/04/12 05:20:07;;;;;;;1.63;1.25;;;8.10;99.90;;;;;;5051271;28;20497;-65
2023/04/12 05:22:33;;;;;;;3.60;1.10;;;8.00;99.90;;;;;;5051224;28;20131;-65
2023/04/12 05:24:59;;;;;;;2.10;1.20;;;8.00;99.90;;;;;;5051352;28;20541;-66
2023/04/12 05:27:26;;;;;;;;;;;8.00;99.90;;;;;;5051487;28;20053;-65
2023/04/12 05:29:52;;;;;;;6.07;1.55;;;8.00;99.90;;;;;;5035935;28;20289;-65
2023/04/12 05:32:18;;;;;;;4.20;1.42;;;8.00;99.90;;;;;;5052863;28;20044;-65
2023/04/12 05:34:44;;;;;;;4.18;1.20;;;7.90;99.90;;;;;;5070744;28;20055;-65
2023/04/12 05:37:10;;;;;;;7.22;1.30;;;7.90;99.90;;;;;;5070442;28;20044;-65
2023/04/12 05:39:36;;;;;;;5.57;1.27;;;7.90;99.90;;;;;;5071934;28;20053;-64
2023/04/12 05:42:02;;;;;;;1.83;1.13;;;8.00;99.90;;;;;;5071142;28;20562;-66
2023/04/12 05:44:27;;;;;;;11.38;2.10;;;7.90;99.90;;;;;;5071561;28;20122;-64
2023/04/12 05:46:53;;;;;;;1.95;1.50;;;7.90;99.90;;;;;;5062055;28;20053;-66
2023/04/12 05:49:19;;;;;;;4.68;1.58;;;7.80;99.90;;;;;;5050820;28;20478;-66
2023/04/12 05:51:45;;;;;;;2.55;1.60;;;7.80;99.90;;;;;;5062800;28;20075;-65
2023/04/12 05:54:10;;;;;;;3.25;1.23;;;7.80;99.90;;;;;;5068701;28;20041;-65
2023/04/12 05:56:36;;;;;;;2.08;1.15;;;7.80;99.90;;;;;;5051848;28;20095;-65
2023/04/12 05:59:03;;;;;;;2.70;1.55;;;7.80;99.90;;;;;;5049688;28;20132;-65
2023/04/12 06:01:33;;;;;;;9.15;1.80;;;7.70;99.90;;;;;;5051057;28;20044;-67
2023/04/12 06:04:01;;;;;;;2.67;1.20;;;7.70;99.90;;;;;;5047303;28;20098;-70
2023/04/12 06:06:29;;;;;;;4.00;1.42;;;7.70;99.90;;;;;;5094638;28;20056;-65
2023/04/12 06:08:59;;;;;;;5.63;1.27;;;7.70;99.90;;;;;;5111677;28;20105;-65
2023/04/12 06:11:26;;;;;;;5.22;1.67;;;7.70;99.90;;;;;;5109709;28;20199;-68
2023/04/12 06:13:51;;;;;;;5.97;1.40;;;7.70;99.90;;;;;;5096941;28;20039;-66
2023/04/12 06:16:17;;;;;;;4.13;1.65;;;7.60;99.90;;;;;;5093173;28;20097;-64
2023/04/12 06:18:43;;;;;;;5.63;1.60;;;7.70;99.90;;;;;;5089534;28;20052;-65
2023/04/12 06:21:09;;;;;;;3.83;1.05;;;7.60;99.90;;;;;;5103700;28;20051;-65
2023/04/12 06:23:35;;;;;;;5.32;1.15;;;7.70;99.90;;;;;;5110740;28;20538;-65
2023/04/12 06:26:01;;;;;;;;;;;7.60;99.90;;;;;;5111865;28;20047;-71
2023/04/12 06:28:26;;;;;;;1.42;1.08;;;7.70;99.90;;;;;;5111257;28;19964;-62
2023/04/12 06:30:53;;;;;;;3.15;1.65;;;7.70;99.90;;;;;;5110714;28;20039;-65
2023/04/12 06:33:21;;;;;;;4.30;1.50;;;7.70;99.90;;;;;;5109923;28;20048;-67
2023/04/12 06:35:47;;;;;;;3.85;1.67;;;7.60;99.90;;;;;;5108191;28;20058;-64
2023/04/12 06:38:13;;;;;;;2.70;1.52;;;7.60;99.90;;;;;;5103201;28;20069;-64
2023/04/12 06:40:39;;;;;;;5.82;1.60;;;7.60;99.90;;;;;;5111346;28;20506;-64
2023/04/12 06:43:05;;;;;;;5.68;1.60;;;7.60;99.90;;;;;;5111253;28;20059;-65
2023/04/12 06:45:31;;;;;;;4.93;1.60;;;7.60;99.90;;;;;;5110844;28;20101;-64
2023/04/12 06:47:56;;;;;;;7.30;1.60;;;7.60;99.90;;;;;;5075765;28;20562;-64
2023/04/12 06:50:22;;;;;;;4.15;1.25;;;7.60;99.90;;;;;;5089940;28;20048;-64
2023/04/12 06:52:48;;;;;;;7.65;2.35;;;7.60;99.90;;;;;;5089740;28;20416;-66
2023/04/12 06:55:15;;;;;;;3.35;1.40;;;7.60;99.90;;;;;;5098209;28;20069;-66
2023/04/12 06:57:42;;;;;;;4.57;2.05;;;7.50;99.90;;;;;;5103539;28;20059;-64
2023/04/12 07:00:08;;;;;;;4.50;1.55;;;7.50;99.90;;;;;;5110634;28;20491;-66
2023/04/12 07:02:33;;;;;;;;;;;7.50;99.90;;;;;;5110858;28;20039;-65
2023/04/12 07:04:59;;;;;;;4.03;1.75;;;7.50;99.90;;;;;;5110959;28;19920;-64
2023/04/12 07:07:25;;;;;;;3.63;1.65;;;7.50;99.90;;;;;;5108642;28;20056;-63
2023/04/12 07:09:51;;;;;;;6.53;1.80;;;7.50;99.90;;;;;;5090798;28;20055;-65
2023/04/12 07:12:17;;;;;;;;;;;7.50;99.90;;;;;;5090437;28;20508;-64
2023/04/12 07:14:42;;;;;;;4.07;1.50;;;7.50;99.90;;;;;;5090754;28;19930;-65
2023/04/12 07:17:08;;;;;;;4.00;2.00;;;7.50;99.90;;;;;;5089228;28;20143;-70
2023/04/12 07:19:34;;;;;;;2.58;1.60;;;7.50;99.90;;;;;;5094446;28;20130;-64
2023/04/12 07:22:00;;;;;;;2.67;1.55;;;7.50;99.90;;;;;;5109323;28;20500;-65
2023/04/12 07:24:26;;;;;;;5.63;1.70;;;7.50;99.90;;;;;;5091886;28;20093;-65
2023/04/12 07:26:53;;;;;;;8.73;1.70;;;7.50;99.90;;;;;;5109482;28;20051;-65
2023/04/12 07:29:19;;;;;;;5.85;1.80;;;7.50;99.90;;;;;;5109950;28;20050;-66
2023/04/12 07:31:45;;;;;;;3.13;1.50;;;7.50;99.90;;;;;;5110216;28;20047;-67
2023/04/12 07:34:11;;;;;;;4.28;1.40;;;7.50;99.90;;;;;;5110023;28;20040;-66
2023/04/12 07:36:37;;;;;;;3.45;1.50;;;7.60;99.90;;;;;;5109904;28;20047;-65
2023/04/12 07:39:03;;;;;;;3.85;1.90;;;7.60;99.90;;;;;;5108949;28;20473;-66
2023/04/12 07:41:29;;;;;;;4.75;2.85;;;7.50;99.90;;;;;;5105267;28;20043;-64
2023/04/12 07:43:55;;;;;;;4.88;1.90;;;7.50;99.90;;;;;;5110363;28;20039;-65
2023/04/12 07:46:21;;;;;;;;;;;7.50;99.90;;;;;;5110125;28;20040;-65
2023/04/12 07:48:46;;;;;;;1.95;1.42;;;7.50;99.90;;;;;;5108688;28;19920;-65
2023/04/12 07:51:12;;;;;;;3.58;1.92;;;7.50;99.90;;;;;;5101705;28;20051;-70
2023/04/12 07:53:39;;;;;;;4.28;2.20;;;7.60;99.90;;;;;;5096960;28;20055;-65
2023/04/12 07:56:05;;;;;;;6.25;2.00;;;7.50;99.90;;;;;;5089954;28;20052;-68
2023/04/12 07:58:32;;;;;;;6.82;2.58;;;7.50;99.90;;;;;;5092188;28;20048;-65
2023/04/12 08:00:58;;;;;;;6.88;3.05;;;7.50;99.90;;;;;;5085836;27;20048;-65
2023/04/12 08:03:23;;;;;;;7.88;2.05;;;7.50;99.90;;;;;;5107558;27;20114;-65
2023/04/12 08:05:52;;;;;;;6.78;3.13;;;7.50;99.90;;;;;;5094510;28;20060;-65
2023/04/12 08:08:21;;;;;;;9.40;3.40;;;7.50;99.90;;;;;;5108142;28;20122;-66
2023/04/12 08:10:47;;;;;;;10.65;3.42;;;7.50;99.90;;;;;;5114006;28;20044;-66
2023/04/12 08:13:13;;;;;;;5.60;2.83;;;7.50;99.90;;;;;;5113524;28;20051;-69
2023/04/12 08:15:39;;;;;;;6.90;3.25;;;7.50;99.90;;;;;;5081557;28;20048;-65
2023/04/12 08:18:05;;;;;;;9.40;3.60;;;7.50;99.90;;;;;;5092245;28;20059;-65
2023/04/12 08:20:31;;;;;;;5.82;2.80;;;7.50;99.90;;;;;;5098979;28;20066;-65
2023/04/12 08:22:57;;;;;;;;;;;7.60;99.90;;;;;;5102237;28;20512;-65
2023/04/12 08:25:23;;;;;;;7.97;2.67;;;7.50;99.90;;;;;;5099950;28;19920;-66
2023/04/12 08:27:50;;;;;;;4.32;2.30;;;7.60;99.90;;;;;;5094332;28;20052;-67
2023/04/12 08:30:16;;;;;;;6.75;3.38;;;7.60;99.90;;;;;;5077413;28;20047;-70
2023/04/12 08:32:42;;;;;;;2.65;2.00;;;7.60;99.90;;;;;;5111497;28;20046;-65
2023/04/12 08:35:08;;;;;;;3.83;2.28;;;7.70;99.90;;;;;;5113321;28;20035;-66
2023/04/12 08:37:34;;;;;;;;;;;7.60;99.90;;;;;;5109090;28;20052;-65
2023/04/12 08:40:03;;;;;;;6.70;2.42;;;7.70;99.90;;;;;;5093030;28;20369;-66
2023/04/12 08:42:31;;;;;;;2.47;1.52;;;7.70;99.90;;;;;;5091817;28;20040;-66
2023/04/12 08:44:57;;;;;;;3.15;2.15;;;7.80;99.90;;;;;;5100055;28;20036;-68
2023/04/12 08:47:23;;;;;;;4.05;1.98;;;7.90;99.90;;;;;;5091614;28;20500;-66
2023/04/12 08:49:48;;;;;;;3.05;2.17;;;8.00;99.90;;;;;;5092267;28;20044;-67
2023/04/12 08:52:14;;;;;;;4.18;2.40;;;7.90;99.90;;;;;;5102364;28;20052;-65
2023/04/12 08:54:40;;;;;;;6.55;3.17;;;7.90;99.90;;;;;;5093667;28;20047;-66
2023/04/12 08:57:07;;;;;;;2.90;2.03;;;7.90;99.90;;;;;;5106064;28;20083;-65
2023/04/12 08:59:41;;;;;;;4.88;2.65;;;7.90;99.90;;;;;;5103764;28;20104;-65
2023/04/12 09:02:06;;;;;;;5.72;2.55;;;7.90;99.90;;;;;;5112093;28;20512;-65
2023/04/12 09:04:32;;;;;;;5.45;2.35;;;7.90;99.90;;;;;;5093535;28;20047;-68
2023/04/12 09:06:58;;;;;;;7.32;3.38;;;7.90;99.90;;;;;;5111898;28;20067;-66
2023/04/12 09:09:43;;;;;;;5.50;2.90;;;7.90;99.90;;;;;;5105058;28;20083;-65
2023/04/12 09:12:10;;;;;;;6.22;2.80;;;7.90;99.90;;;;;;5112392;28;20051;-66
2023/04/12 09:14:37;;;;;;;7.13;3.10;;;7.90;99.90;;;;;;5112140;28;20027;-67
2023/04/12 09:17:03;;;;;;;5.20;2.75;;;7.90;99.90;;;;;;5111654;28;20043;-66
2023/04/12 09:19:35;;;;;;;5.25;2.70;;;7.90;99.90;;;;;;5111219;28;20051;-66
2023/04/12 09:22:01;;;;;;;6.40;2.72;;;7.90;99.90;;;;;;5111693;28;20484;-67
2023/04/12 09:24:28;;;;;;;8.55;3.35;;;8.00;99.90;;;;;;5074147;28;20147;-65
2023/04/12 09:27:04;;;;;;;7.47;3.50;;;8.00;99.90;;;;;;5105054;28;20507;-65
2023/04/12 09:29:31;;;;;;;8.80;4.13;;;8.00;99.90;;;;;;5096822;28;20089;-67
2023/04/12 09:32:05;;;;;;;8.20;3.58;;;8.10;99.90;;;;;;5111774;28;20288;-66
2023/04/12 09:34:32;;;;;;;7.63;3.75;;;8.10;99.90;;;;;;5105683;28;20500;-68
2023/04/12 09:36:58;;;;;;;7.18;3.85;;;8.10;99.90;;;;;;5105572;28;20058;-66
2023/04/12 09:39:31;;;;;;;7.82;4.15;;;8.10;99.90;;;;;;5094448;28;20052;-69
2023/04/12 09:42:11;;;;;;;5.97;3.28;;;8.20;99.90;;;;;;5093157;28;20048;-66
2023/04/12 09:44:38;;;;;;;5.65;3.20;;;8.20;99.90;;;;;;5103850;28;20077;-66
2023/04/12 09:47:04;;;;;;;6.75;3.80;;;8.20;99.90;;;;;;5111258;28;20054;-66
2023/04/12 09:49:38;;;;;;;5.95;3.58;;;8.20;99.90;;;;;;5108394;28;20055;-65
2023/04/12 09:52:06;;;;;;;5.95;3.50;;;8.20;99.90;;;;;;5089559;28;20056;-66
2023/04/12 09:54:47;;;;;;;7.03;3.58;;;8.20;99.90;;;;;;5105437;28;20050;-67
2023/04/12 09:57:19;;;;;;;6.18;3.67;;;8.30;99.90;;;;;;5111885;28;20122;-67
2023/04/12 09:59:48;;;;;;;8.98;4.10;;;8.40;99.90;;;;;;5110896;28;20050;-66
2023/04/12 10:02:18;;;;;;;7.68;3.72;;;8.50;99.90;;;;;;5111131;28;20043;-64
2023/04/12 10:04:47;;;;;;;6.32;3.78;;;8.60;99.90;;;;;;5110531;28;20501;-64
2023/04/12 10:07:13;;;;;;;8.10;3.92;;;8.60;99.90;;;;;;5110660;28;20512;-65
2023/04/12 10:09:40;;;;;;;7.85;3.65;;;8.60;99.90;;;;;;5101124;28;20497;-64
2023/04/12 10:12:07;;;;;;;;;;;8.60;99.90;;;;;;5091864;28;20051;-65
2023/04/12 10:14:33;;;;;;;7.70;4.13;;;8.70;99.90;;;;;;5094020;28;19923;-65
2023/04/12 10:17:01;;;;;;;7.65;3.85;;;8.70;99.90;;;;;;5090366;28;20048;-66
2023/04/12 10:19:28;;;;;;;6.95;3.92;;;8.80;99.90;;;;;;5071686;28;20651;-71
2023/04/12 10:21:55;;;;;;;11.57;4.50;;;8.70;99.90;;;;;;5106600;28;20041;-65
2023/04/12 10:24:26;;;;;;;7.47;4.15;;;8.80;99.90;;;;;;5110964;28;20063;-65
2023/04/12 10:26:54;;;;;;;8.63;4.38;;;9.10;99.90;;;;;;5097740;28;20051;-65
2023/04/12 10:29:31;;;;;;;8.52;4.57;;;9.30;99.90;;;;;;5109669;28;20083;-65
2023/04/12 10:32:17;;;;;;;7.72;3.80;;;9.40;99.90;;;;;;5096705;28;20460;-65
2023/04/12 10:34:43;;;;;;;7.25;4.30;;;9.60;99.90;;;;;;5094834;28;20177;-65
2023/04/12 10:37:08;;;;;;;10.65;3.70;;;9.60;99.90;;;;;;5072202;28;20085;-66
2023/04/12 10:39:46;;;;;;;8.82;3.50;;;9.70;99.90;;;;;;5106100;28;20056;-65
2023/04/12 10:42:29;;;;;;;7.70;3.03;;;9.70;99.90;;;;;;5111102;28;20047;-65
2023/04/12 10:45:16;;;;;;;7.57;3.40;;;9.70;99.90;;;;;;5110758;28;20120;-65
2023/04/12 10:47:47;;;;;;;7.65;3.42;;;9.80;99.90;;;;;;5109485;28;20396;-65
2023/04/12 10:50:20;;;;;;;6.55;3.33;;;9.90;99.90;;;;;;5110340;28;20412;-62
2023/04/12 10:53:14;;;;;;;5.75;2.95;;;10.00;99.90;;;;;;5093566;28;20052;-62
2023/04/12 10:55:41;;;;;;;8.70;3.50;;;10.30;99.90;;;;;;5099493;28;20549;-66
2023/04/12 10:58:08;;;;;;;7.18;2.50;;;10.50;99.90;;;;;;5093967;28;20048;-64
2023/04/12 11:00:58;;;;;;;8.80;2.72;;;10.60;99.90;;;;;;5090659;28;20048;-65
2023/04/12 11:03:25;;;;;;;8.52;3.03;;;10.80;99.90;;;;;;5088130;28;20143;-66
2023/04/12 11:06:02;;;;;;;10.25;2.85;;;11.00;99.90;;;;;;5099090;28;20055;-65
2023/04/12 11:08:28;;;;;;;8.00;3.10;;;11.10;99.90;;;;;;5096668;28;20051;-66
2023/04/12 11:11:02;;;;;;;9.25;3.10;;;11.10;99.90;;;;;;5099072;28;20524;-65
2023/04/12 11:13:33;;;;;;;9.10;3.53;;;11.20;99.90;;;;;;5099748;28;20679;-65
2023/04/12 11:16:04;;;;;;;6.70;3.05;;;11.40;99.90;;;;;;5083777;28;20052;-65
2023/04/12 11:18:31;;;;;;;9.10;3.45;;;11.70;99.90;;;;;;5090556;28;20120;-69
2023/04/12 11:20:58;;;;;;;8.45;2.80;;;12.20;99.90;;;;;;5107079;28;20044;-66
2023/04/12 11:23:24;;;;;;;;;;;12.50;99.90;;;;;;5110175;28;20039;-66
2023/04/12 11:25:53;;;;;;;6.88;2.65;;;12.80;99.90;;;;;;5109636;28;19927;-63
2023/04/12 11:28:19;;;;;;;4.57;2.30;;;13.10;99.90;;;;;;5110301;28;20040;-63
2023/04/12 11:30:52;;;;;;;8.65;2.58;;;13.30;99.90;;;;;;5110015;28;20503;-63
2023/04/12 11:33:37;;;;;;;9.63;2.78;;;13.30;99.90;;;;;;5110466;28;20629;-64
2023/04/12 11:36:06;;;;;;;7.70;1.98;;;13.70;99.90;;;;;;5102180;28;20051;-62
2023/04/12 11:38:33;;;;;;;10.55;1.98;;;14.00;99.90;;;;;;5095210;28;20082;-69
2023/04/12 11:40:59;;;;;;;6.38;2.25;;;14.30;99.90;;;;;;5103394;28;20104;-64
2023/04/12 11:43:24;;;;;;;;;;;14.70;99.90;;;;;;5112026;28;20044;-64
2023/04/12 11:46:00;;;;;;;6.38;1.60;;;15.00;99.90;;;;;;5113361;28;20377;-63
2023/04/12 11:48:27;;;;;;;6.93;1.75;;;14.80;99.90;;;;;;5112514;28;20453;-65
2023/04/12 11:50:52;;;;;;;3.38;1.63;;;14.40;99.90;;;;;;5113762;28;20555;-63
2023/04/12 11:53:19;;;;;;;4.07;1.90;;;13.90;99.90;;;;;;5105877;28;20040;-63
2023/04/12 11:55:48;;;;;;;8.82;1.75;;;13.70;99.90;;;;;;5103290;28;20481;-65
2023/04/12 11:58:15;;;;;;;7.63;1.67;;;13.90;99.90;;;;;;5105717;28;20047;-63
2023/04/12 12:00:44;;;;;;;5.78;1.55;;;14.30;99.90;;;;;;5082018;28;20397;-65
2023/04/12 12:03:10;;;;;;;9.30;2.08;;;14.70;99.90;;;;;;5111685;28;20055;-65
2023/04/12 12:05:38;;;;;;;8.10;1.92;;;15.30;99.90;;;;;;5106601;28;20063;-70
2023/04/12 12:08:06;;;;;;;8.30;2.05;;;15.70;99.90;;;;;;5099328;28;20055;-63
2023/04/12 12:10:34;;;;;;;5.32;1.92;;;16.30;99.90;;;;;;5113658;28;20536;-63
2023/04/12 12:13:00;;;;;;;6.47;1.60;;;16.90;99.90;;;;;;5113430;28;20059;-63
2023/04/12 12:15:29;;;;;;;;;;;17.10;99.90;;;;;;5114452;28;20052;-62
2023/04/12 12:17:55;;;;;;;8.25;1.98;;;17.40;99.90;;;;;;5102506;28;19930;-62
2023/04/12 12:20:22;;;;;;;4.38;1.30;;;17.90;99.90;;;;;;5106934;28;20043;-63
2023/04/12 12:22:48;;;;;;;3.90;1.33;;;18.50;99.90;;;;;;5095133;28;20123;-63
2023/04/12 12:25:17;;;;;;;7.28;1.73;;;18.90;99.90;;;;;;5110070;28;20166;-65
2023/04/12 12:27:47;;;;;;;7.50;2.05;;;19.10;99.90;;;;;;5098496;28;20047;-65
2023/04/12 12:30:16;;;;;;;9.40;1.60;;;19.30;99.90;;;;;;5095125;28;20117;-63
2023/04/12 12:32:43;;;;;;;6.20;1.50;;;19.90;99.90;;;;;;5093557;28;20740;-64
2023/04/12 12:35:14;;;;;;;8.90;1.60;;;20.30;99.90;;;;;;5110953;28;20051;-63
2023/04/12 12:37:51;;;;;;;9.68;1.58;;;20.50;99.90;;;;;;5109163;28;20051;-69
2023/04/12 12:40:20;;;;;;;6.70;1.73;;;20.60;89.40;;;;;;5093429;28;20047;-65
2023/04/12 12:42:53;;;;;;;9.35;1.83;;;20.60;99.50;;;;;;5092324;28;20496;-63
2023/04/12 12:45:21;;;;;;;4.68;1.38;;;21.50;95.80;;;;;;5111534;28;20074;-63
2023/04/12 12:48:03;;;;;;;11.40;1.80;;;21.20;90.20;;;;;;5112267;28;20055;-62
2023/04/12 12:50:34;;;;;;;5.35;1.60;;;19.50;76.60;;;;;;5113048;28;20075;-63
2023/04/12 12:53:01;;;;;;;8.90;2.17;;;18.20;92.40;;;;;;5111903;28;20548;-64
2023/04/12 12:55:28;;;;;;;5.75;1.60;;;17.20;98.70;;;;;;5111111;28;20040;-62
2023/04/12 12:57:55;;;;;;;8.43;1.77;;;16.40;99.90;;;;;;5104597;28;20127;-63
2023/04/12 13:00:23;;;;;;;6.50;1.80;;;15.90;99.90;;;;;;5092562;28;20481;-63
2023/04/12 13:02:52;;;;;;;5.20;1.33;;;15.50;99.90;;;;;;5091705;28;20040;-64